Time;durP1;ratioP1;P1;durP2;ratioP2;P2;SDS_P1;SDS_P2;PMS_P1;PMS_P2;Temp;Humidity;BMP_temperature;BMP_pressure;BME280_temperature;BME280_humidity;BME280_pressure;Samples;Min_cycle;Max_cycle;Signal;HPM_P1;HPM_P2
2023/06/15 00:00:49;;;;;;;10.57;6.45;;;14.80;99.90;;;;;;5050216;28;20119;-73
2023/06/15 00:03:16;;;;;;;10.38;6.18;;;14.80;99.90;;;;;;5048910;28;20463;-71
2023/06/15 00:05:41;;;;;;;10.13;6.03;;;14.70;99.90;;;;;;5049617;28;20045;-71
2023/06/15 00:08:07;;;;;;;7.78;6.32;;;14.70;99.90;;;;;;5050421;28;20025;-71
2023/06/15 00:10:33;;;;;;;8.02;5.88;;;14.70;99.90;;;;;;5049631;28;20100;-71
2023/06/15 00:12:59;;;;;;;8.65;6.32;;;14.60;99.90;;;;;;5050050;28;20029;-71
2023/06/15 00:15:27;;;;;;;8.70;6.32;;;14.60;99.90;;;;;;5049357;28;20025;-72
2023/06/15 00:17:54;;;;;;;6.82;6.13;;;14.50;99.90;;;;;;5050146;28;20040;-71
2023/06/15 00:20:22;;;;;;;9.25;6.43;;;14.60;99.90;;;;;;5048520;28;20024;-71
2023/06/15 00:22:51;;;;;;;7.30;6.03;;;14.50;99.90;;;;;;5049669;28;20094;-71
2023/06/15 00:25:17;;;;;;;10.65;6.43;;;14.50;99.90;;;;;;5049975;28;20109;-71
2023/06/15 00:27:43;;;;;;;9.23;6.03;;;14.40;99.90;;;;;;5048951;28;20152;-71
2023/06/15 00:30:10;;;;;;;10.40;6.78;;;14.40;99.90;;;;;;5050203;28;20028;-72
2023/06/15 00:32:36;;;;;;;10.20;6.38;;;14.40;99.90;;;;;;5049310;28;20069;-71
2023/06/15 00:35:02;;;;;;;9.27;6.78;;;14.40;99.90;;;;;;5049673;28;20041;-71
2023/06/15 00:37:27;;;;;;;7.13;6.28;;;14.50;99.90;;;;;;5047612;28;20040;-72
2023/06/15 00:39:54;;;;;;;6.88;6.15;;;14.40;99.90;;;;;;5049417;28;20032;-70
2023/06/15 00:42:20;;;;;;;9.25;7.00;;;14.40;99.90;;;;;;5049906;28;20111;-71
2023/06/15 00:44:46;;;;;;;10.48;6.28;;;14.40;99.90;;;;;;5048333;28;20422;-72
2023/06/15 00:47:12;;;;;;;9.48;6.68;;;14.30;99.90;;;;;;5049981;28;20339;-71
2023/06/15 00:49:38;;;;;;;9.13;6.82;;;14.20;99.90;;;;;;5049664;28;20103;-72
2023/06/15 00:52:04;;;;;;;9.23;7.13;;;14.20;99.90;;;;;;5049961;28;20029;-73
2023/06/15 00:54:31;;;;;;;8.30;6.15;;;14.10;99.90;;;;;;5049596;28;20037;-72
2023/06/15 00:56:57;;;;;;;8.13;6.15;;;14.10;99.90;;;;;;5049579;28;20460;-71
2023/06/15 00:59:22;;;;;;;10.80;6.82;;;14.00;99.90;;;;;;5050024;28;20041;-71
2023/06/15 01:01:49;;;;;;;7.47;6.13;;;14.00;99.90;;;;;;5049418;28;20036;-71
2023/06/15 01:04:15;;;;;;;10.45;6.72;;;14.00;99.90;;;;;;5049663;28;20033;-71
2023/06/15 01:06:51;;;;;;;7.38;6.35;;;14.00;99.90;;;;;;5049116;28;20100;-72
2023/06/15 01:09:20;;;;;;;9.65;7.13;;;14.00;99.90;;;;;;5049742;28;20356;-71
2023/06/15 01:11:48;;;;;;;9.52;6.45;;;14.00;99.90;;;;;;5048892;28;20040;-72
2023/06/15 01:14:14;;;;;;;8.45;6.50;;;13.90;99.90;;;;;;5049805;28;20025;-71
2023/06/15 01:16:52;;;;;;;8.48;7.00;;;13.90;99.90;;;;;;5048937;28;20036;-72
2023/06/15 01:20:04;;;;;;;10.23;7.03;;;13.80;99.90;;;;;;5049731;28;20051;-71
2023/06/15 01:23:10;;;;;;;10.60;6.95;;;13.70;99.90;;;;;;5049009;28;20041;-72
2023/06/15 01:25:45;;;;;;;12.50;7.40;;;13.70;99.90;;;;;;5049124;28;20029;-71
2023/06/15 01:28:15;;;;;;;10.43;7.47;;;13.70;99.90;;;;;;5049530;28;20056;-71
2023/06/15 01:30:47;;;;;;;9.98;7.47;;;13.60;99.90;;;;;;5049056;28;20339;-71
2023/06/15 01:33:12;;;;;;;12.35;7.18;;;13.50;99.90;;;;;;5049588;28;20025;-71
2023/06/15 01:35:39;;;;;;;9.75;7.43;;;13.40;99.90;;;;;;5052350;28;20048;-72
2023/06/15 01:38:05;;;;;;;11.88;7.50;;;13.40;99.90;;;;;;5053171;28;20131;-71
2023/06/15 01:40:34;;;;;;;10.15;7.07;;;13.50;99.90;;;;;;5052785;28;20423;-71
2023/06/15 01:43:01;;;;;;;13.13;7.90;;;13.40;99.90;;;;;;5052749;28;20029;-71
2023/06/15 01:45:29;;;;;;;9.20;7.45;;;13.50;99.90;;;;;;5052754;28;20028;-73
2023/06/15 01:47:55;;;;;;;10.68;7.00;;;13.50;99.90;;;;;;5052916;28;20044;-71
2023/06/15 01:50:22;;;;;;;11.82;7.88;;;13.50;99.90;;;;;;5052689;28;20029;-71
2023/06/15 01:52:48;;;;;;;9.13;6.95;;;13.60;99.90;;;;;;5052097;28;20217;-71
2023/06/15 01:55:14;;;;;;;11.60;7.35;;;13.70;99.90;;;;;;5052555;28;20100;-72
2023/06/15 01:57:41;;;;;;;9.38;7.57;;;13.70;99.90;;;;;;5052054;28;20481;-71
2023/06/15 02:00:10;;;;;;;10.55;7.47;;;13.60;99.90;;;;;;5052419;28;20036;-71
2023/06/15 02:02:37;;;;;;;9.60;7.63;;;13.60;99.90;;;;;;5051785;28;20040;-71
2023/06/15 02:05:06;;;;;;;9.50;7.22;;;13.60;99.90;;;;;;5052698;28;20056;-71
2023/06/15 02:07:32;;;;;;;10.95;6.93;;;13.50;99.90;;;;;;5051565;28;20029;-72
2023/06/15 02:09:58;;;;;;;10.70;7.20;;;13.40;99.90;;;;;;5052321;28;20029;-71
2023/06/15 02:12:23;;;;;;;9.63;7.75;;;13.40;99.90;;;;;;5052214;28;20033;-71
2023/06/15 02:14:50;;;;;;;9.07;7.75;;;13.40;99.90;;;;;;5051852;28;20074;-71
2023/06/15 02:17:17;;;;;;;9.98;7.88;;;13.40;99.90;;;;;;5051960;28;20029;-71
2023/06/15 02:19:46;;;;;;;9.45;7.75;;;13.40;99.90;;;;;;5051543;28;20025;-71
2023/06/15 02:22:12;;;;;;;9.82;7.47;;;13.40;99.90;;;;;;5051299;28;20033;-71
2023/06/15 02:24:38;;;;;;;9.30;7.20;;;13.30;99.90;;;;;;5051773;28;20108;-71
2023/06/15 02:27:05;;;;;;;9.27;7.97;;;13.40;99.90;;;;;;5052315;28;20204;-71
2023/06/15 02:29:30;;;;;;;9.02;7.50;;;13.40;99.90;;;;;;5051600;28;20025;-73
2023/06/15 02:31:56;;;;;;;11.45;7.93;;;13.40;99.90;;;;;;5052436;28;20039;-70
2023/06/15 02:34:24;;;;;;;13.38;7.95;;;13.30;99.90;;;;;;5052225;28;20116;-70
2023/06/15 02:36:53;;;;;;;11.50;7.93;;;13.30;99.90;;;;;;5051974;28;20100;-71
2023/06/15 02:39:19;;;;;;;9.43;7.60;;;13.20;99.90;;;;;;5052252;28;20075;-72
2023/06/15 02:41:45;;;;;;;10.27;7.53;;;13.10;99.90;;;;;;5051763;28;20381;-71
2023/06/15 02:44:11;;;;;;;9.48;7.38;;;13.10;99.90;;;;;;5052413;28;20071;-70
2023/06/15 02:46:36;;;;;;;9.93;7.68;;;13.10;99.90;;;;;;5050110;28;20133;-70
2023/06/15 02:49:02;;;;;;;10.23;7.65;;;13.00;99.90;;;;;;5051684;28;20056;-70
2023/06/15 02:51:28;;;;;;;12.82;8.38;;;13.00;99.90;;;;;;5051749;28;20099;-70
2023/06/15 02:53:54;;;;;;;11.02;8.70;;;13.00;99.90;;;;;;5050898;28;20103;-70
2023/06/15 02:56:21;;;;;;;9.48;7.53;;;13.00;99.90;;;;;;5050355;28;20025;-70
2023/06/15 02:58:54;;;;;;;9.65;8.07;;;12.90;99.90;;;;;;5051014;28;20037;-71
2023/06/15 03:01:24;;;;;;;9.88;7.50;;;12.80;99.90;;;;;;5051793;28;20490;-70
2023/06/15 03:03:50;;;;;;;10.15;8.23;;;12.80;99.90;;;;;;5050784;28;20158;-70
2023/06/15 03:06:16;;;;;;;10.80;8.57;;;13.00;99.90;;;;;;5051741;28;20363;-71
2023/06/15 03:08:42;;;;;;;13.27;8.63;;;13.00;99.90;;;;;;5050829;28;20029;-71
2023/06/15 03:11:08;;;;;;;11.15;9.15;;;12.90;99.90;;;;;;5051459;28;20059;-70
2023/06/15 03:13:35;;;;;;;10.30;8.30;;;12.90;99.90;;;;;;5050657;28;20437;-72
2023/06/15 03:16:07;;;;;;;11.05;7.95;;;13.00;99.90;;;;;;5050150;28;20024;-72
2023/06/15 03:18:32;;;;;;;11.70;7.83;;;12.90;99.90;;;;;;5049685;28;20036;-73
2023/06/15 03:20:58;;;;;;;12.27;7.95;;;13.00;99.90;;;;;;5050691;28;20254;-71
2023/06/15 03:23:24;;;;;;;9.52;7.50;;;13.00;99.90;;;;;;5050914;28;20494;-71
2023/06/15 03:25:51;;;;;;;9.13;7.88;;;12.90;99.90;;;;;;5050714;28;20029;-70
2023/06/15 03:28:19;;;;;;;12.60;8.35;;;12.90;99.90;;;;;;5050391;28;20564;-71
2023/06/15 03:30:46;;;;;;;10.77;8.45;;;12.90;99.90;;;;;;5050421;28;20104;-73
2023/06/15 03:33:13;;;;;;;9.25;7.95;;;12.90;99.90;;;;;;5050847;28;20063;-70
2023/06/15 03:35:39;;;;;;;11.75;8.40;;;12.80;99.90;;;;;;5050065;28;20109;-71
2023/06/15 03:38:06;;;;;;;11.55;7.97;;;12.80;99.90;;;;;;5050817;28;20052;-71
2023/06/15 03:40:37;;;;;;;8.90;7.50;;;12.70;99.90;;;;;;5050643;28;20059;-71
2023/06/15 03:43:02;;;;;;;10.52;7.75;;;12.70;99.90;;;;;;5050586;28;20100;-71
2023/06/15 03:45:28;;;;;;;9.60;7.57;;;12.70;99.90;;;;;;5050173;28;20416;-71
2023/06/15 03:47:54;;;;;;;9.48;7.45;;;12.80;99.90;;;;;;5050267;28;20108;-71
2023/06/15 03:50:19;;;;;;;10.77;8.80;;;12.90;99.90;;;;;;5050453;28;20025;-70
2023/06/15 03:52:45;;;;;;;9.90;7.82;;;12.90;99.90;;;;;;5049954;28;20112;-71
2023/06/15 03:55:13;;;;;;;11.80;8.35;;;12.80;99.90;;;;;;5050644;28;20031;-70
2023/06/15 03:57:38;;;;;;;10.18;8.23;;;12.80;99.90;;;;;;5049050;28;20104;-71
2023/06/15 04:00:07;;;;;;;10.32;7.90;;;12.80;99.90;;;;;;5050459;28;20071;-70
2023/06/15 04:02:33;;;;;;;11.50;8.90;;;12.90;99.90;;;;;;5050282;28;20037;-70
2023/06/15 04:05:00;;;;;;;13.52;8.93;;;12.80;99.90;;;;;;5031780;28;20037;-71
2023/06/15 04:07:28;;;;;;;12.82;8.63;;;12.80;99.90;;;;;;5050241;28;20051;-70
2023/06/15 04:09:54;;;;;;;11.40;8.25;;;12.80;99.90;;;;;;5049819;28;20029;-70
2023/06/15 04:12:20;;;;;;;11.75;7.70;;;12.70;99.90;;;;;;5048870;28;20477;-70
2023/06/15 04:14:46;;;;;;;10.98;7.95;;;12.70;99.90;;;;;;5049580;28;20028;-71
2023/06/15 04:17:13;;;;;;;10.40;8.40;;;12.60;99.90;;;;;;5050583;28;20366;-70
2023/06/15 04:19:38;;;;;;;14.25;8.30;;;12.60;99.90;;;;;;5049455;28;20025;-71
2023/06/15 04:22:05;;;;;;;12.25;7.97;;;12.50;99.90;;;;;;5050096;28;20028;-70
2023/06/15 04:24:31;;;;;;;9.93;8.27;;;12.50;99.90;;;;;;5048651;28;20489;-69
2023/06/15 04:26:57;;;;;;;10.25;8.15;;;12.50;99.90;;;;;;5049275;28;20128;-74
2023/06/15 04:29:23;;;;;;;10.10;7.50;;;12.50;99.90;;;;;;5048560;28;20033;-71
2023/06/15 04:31:55;;;;;;;8.80;7.72;;;12.50;99.90;;;;;;5049257;28;20040;-73
2023/06/15 04:34:24;;;;;;;11.45;8.02;;;12.60;99.90;;;;;;5049616;28;20453;-72
2023/06/15 04:36:50;;;;;;;9.10;7.82;;;12.60;99.90;;;;;;5049444;28;20087;-73
2023/06/15 04:39:17;;;;;;;10.95;7.78;;;12.60;99.90;;;;;;5049956;28;20025;-73
2023/06/15 04:41:42;;;;;;;10.70;8.10;;;12.70;99.90;;;;;;5049908;28;20426;-72
2023/06/15 04:44:08;;;;;;;12.52;8.00;;;12.70;99.90;;;;;;5050092;28;20108;-73
2023/06/15 04:46:38;;;;;;;12.02;7.97;;;12.80;99.90;;;;;;5050037;28;20036;-72
2023/06/15 04:49:03;;;;;;;9.50;7.85;;;12.90;99.90;;;;;;5048408;28;20025;-72
2023/06/15 04:51:30;;;;;;;11.40;7.30;;;13.00;99.90;;;;;;5049947;28;20386;-70
2023/06/15 04:53:56;;;;;;;11.48;7.68;;;13.10;99.90;;;;;;5049568;28;20029;-70
2023/06/15 04:56:23;;;;;;;10.15;7.95;;;13.20;99.90;;;;;;5050122;28;20104;-72
2023/06/15 04:58:49;;;;;;;13.15;8.05;;;13.20;99.90;;;;;;5049358;28;20060;-73
2023/06/15 05:01:15;;;;;;;9.35;7.28;;;13.30;99.90;;;;;;5049823;28;20498;-73
2023/06/15 05:03:41;;;;;;;9.55;7.72;;;13.30;99.90;;;;;;5049396;28;20048;-74
2023/06/15 05:06:07;;;;;;;11.02;7.93;;;13.40;99.90;;;;;;5049868;28;20029;-70
2023/06/15 05:08:34;;;;;;;9.85;7.55;;;13.50;99.90;;;;;;5049960;28;20021;-70
2023/06/15 05:11:01;;;;;;;10.15;8.23;;;13.50;99.90;;;;;;5052828;28;20114;-70
2023/06/15 05:13:27;;;;;;;9.70;7.75;;;13.70;99.90;;;;;;5053953;28;20048;-70
2023/06/15 05:15:53;;;;;;;9.40;7.43;;;13.80;99.90;;;;;;5052557;28;20020;-70
2023/06/15 05:18:19;;;;;;;9.52;8.00;;;13.90;99.90;;;;;;5053162;28;20493;-72
2023/06/15 05:20:45;;;;;;;9.93;7.65;;;14.10;99.90;;;;;;5052523;28;20032;-71
2023/06/15 05:23:11;;;;;;;9.95;6.88;;;14.10;99.90;;;;;;5053580;28;20083;-70
2023/06/15 05:25:37;;;;;;;8.88;7.47;;;14.20;99.90;;;;;;5052878;28;20141;-73
2023/06/15 05:28:03;;;;;;;10.25;7.85;;;14.30;99.90;;;;;;5052079;28;20160;-73
2023/06/15 05:30:29;;;;;;;10.73;7.70;;;14.40;99.90;;;;;;5052992;28;20083;-72
2023/06/15 05:32:55;;;;;;;8.82;6.90;;;14.50;99.90;;;;;;5051859;28;20096;-72
2023/06/15 05:35:21;;;;;;;9.52;7.15;;;14.70;99.90;;;;;;5052836;28;20033;-70
2023/06/15 05:37:47;;;;;;;12.05;7.35;;;14.70;99.90;;;;;;5052495;28;20029;-70
2023/06/15 05:40:12;;;;;;;9.35;7.18;;;14.90;99.90;;;;;;5052977;28;20029;-71
2023/06/15 05:42:39;;;;;;;11.88;7.22;;;15.00;99.90;;;;;;5052642;28;20056;-72
2023/06/15 05:45:05;;;;;;;9.20;7.30;;;15.20;99.90;;;;;;5051905;28;20029;-72
2023/06/15 05:47:32;;;;;;;11.48;7.85;;;15.40;99.90;;;;;;5052465;28;20115;-73
2023/06/15 05:49:57;;;;;;;12.00;8.50;;;15.50;99.90;;;;;;5051883;28;20112;-73
2023/06/15 05:52:23;;;;;;;12.23;7.68;;;15.50;99.90;;;;;;5052388;28;20163;-72
2023/06/15 05:54:50;;;;;;;9.38;7.47;;;15.50;99.90;;;;;;5052108;28;20036;-73
2023/06/15 05:57:15;;;;;;;9.68;8.05;;;15.60;99.90;;;;;;5052268;28;20056;-73
2023/06/15 05:59:41;;;;;;;14.02;8.80;;;15.80;99.90;;;;;;5052022;28;20470;-73
2023/06/15 06:02:08;;;;;;;14.32;8.90;;;15.80;99.90;;;;;;5052568;28;20025;-72
2023/06/15 06:04:34;;;;;;;10.90;9.77;;;15.80;99.90;;;;;;5052611;28;20417;-72
2023/06/15 06:07:01;;;;;;;11.75;8.43;;;15.90;99.90;;;;;;5052033;28;20033;-73
2023/06/15 06:09:27;;;;;;;12.50;9.75;;;16.00;99.90;;;;;;5052990;28;20031;-73
2023/06/15 06:11:53;;;;;;;13.45;9.13;;;16.00;99.90;;;;;;5051719;28;20112;-73
2023/06/15 06:14:19;;;;;;;11.60;9.40;;;16.10;99.90;;;;;;5050947;28;20072;-72
2023/06/15 06:16:44;;;;;;;13.63;10.00;;;16.20;99.90;;;;;;5051767;28;20311;-75
2023/06/15 06:19:11;;;;;;;13.90;9.05;;;16.30;99.90;;;;;;5052275;28;20025;-72
2023/06/15 06:21:36;;;;;;;15.52;9.23;;;16.40;99.90;;;;;;5051663;28;20083;-72
2023/06/15 06:24:02;;;;;;;12.95;9.07;;;16.50;99.90;;;;;;5051064;28;20401;-73
2023/06/15 06:26:29;;;;;;;11.70;9.07;;;16.50;99.90;;;;;;5051573;28;20096;-73
2023/06/15 06:28:55;;;;;;;9.73;8.20;;;16.60;99.90;;;;;;5051003;28;20029;-74
2023/06/15 06:31:21;;;;;;;11.95;8.75;;;16.70;99.90;;;;;;5051656;28;20123;-72
2023/06/15 06:33:47;;;;;;;14.63;9.45;;;16.90;99.90;;;;;;5051069;28;20475;-75
2023/06/15 06:36:13;;;;;;;11.88;8.80;;;16.90;99.90;;;;;;5051803;28;20025;-73
2023/06/15 06:38:38;;;;;;;10.68;8.65;;;17.10;99.90;;;;;;5051660;28;20104;-73
2023/06/15 06:41:04;;;;;;;9.07;8.18;;;17.10;99.90;;;;;;5051357;28;20067;-73
2023/06/15 06:43:30;;;;;;;18.30;10.75;;;17.20;99.90;;;;;;5051436;28;20032;-73
2023/06/15 06:45:56;;;;;;;8.90;7.90;;;17.40;99.90;;;;;;5051420;28;20025;-71
2023/06/15 06:48:21;;;;;;;11.07;8.55;;;17.60;99.90;;;;;;5051554;28;20029;-70
2023/06/15 06:50:47;;;;;;;11.13;8.68;;;17.70;99.90;;;;;;5050050;28;20246;-71
2023/06/15 06:53:13;;;;;;;15.55;9.38;;;17.90;99.90;;;;;;5051399;28;20112;-71
2023/06/15 06:55:39;;;;;;;11.88;8.13;;;17.90;99.90;;;;;;5050699;28;20419;-73
2023/06/15 06:58:05;;;;;;;14.68;8.77;;;17.90;99.90;;;;;;5050184;28;20017;-71
2023/06/15 07:00:31;;;;;;;13.23;8.65;;;18.00;99.90;;;;;;5050702;28;20029;-71
2023/06/15 07:02:57;;;;;;;10.27;8.00;;;18.20;99.90;;;;;;5050107;28;20132;-70
2023/06/15 07:05:23;;;;;;;10.90;8.85;;;18.40;99.90;;;;;;5050441;28;20025;-71
2023/06/15 07:07:49;;;;;;;10.25;9.07;;;18.50;99.90;;;;;;5050496;28;20315;-74
2023/06/15 07:10:15;;;;;;;12.27;9.07;;;18.60;99.90;;;;;;5050441;28;20040;-73
2023/06/15 07:12:41;;;;;;;13.05;8.70;;;18.70;99.90;;;;;;5049578;28;20067;-73
2023/06/15 07:15:07;;;;;;;23.05;8.85;;;18.70;99.90;;;;;;5048925;28;20111;-76
2023/06/15 07:17:33;;;;;;;12.20;8.32;;;18.90;99.90;;;;;;5051276;28;20025;-76
2023/06/15 07:19:58;;;;;;;12.90;8.13;;;18.90;99.90;;;;;;5049228;28;20025;-76
2023/06/15 07:22:24;;;;;;;14.07;8.63;;;19.00;99.90;;;;;;5050945;28;20424;-75
2023/06/15 07:24:51;;;;;;;8.98;7.07;;;19.00;99.90;;;;;;5050653;28;20036;-76
2023/06/15 07:27:18;;;;;;;9.25;7.57;;;19.20;99.90;;;;;;5050325;28;20052;-75
2023/06/15 07:29:44;;;;;;;11.48;7.63;;;19.30;99.90;;;;;;5050531;28;20033;-75
2023/06/15 07:32:10;;;;;;;15.75;9.15;;;19.40;99.90;;;;;;5049070;28;20028;-75
2023/06/15 07:34:36;;;;;;;9.30;7.65;;;19.40;99.90;;;;;;5050624;28;20116;-76
2023/06/15 07:37:02;;;;;;;11.65;7.80;;;19.40;99.90;;;;;;5049819;28;20025;-75
2023/06/15 07:39:28;;;;;;;9.27;7.90;;;19.50;99.90;;;;;;5048746;28;20029;-76
2023/06/15 07:41:55;;;;;;;10.70;7.18;;;19.50;99.90;;;;;;5050692;28;20520;-76
2023/06/15 07:44:21;;;;;;;8.55;7.65;;;19.50;99.90;;;;;;5050742;28;20111;-75
2023/06/15 07:46:46;;;;;;;11.50;7.50;;;19.70;99.90;;;;;;5050216;28;20439;-76
2023/06/15 07:49:12;;;;;;;9.43;6.57;;;19.80;99.90;;;;;;5050139;28;20104;-75
2023/06/15 07:51:38;;;;;;;8.70;6.40;;;19.90;99.90;;;;;;5050188;28;20055;-75
2023/06/15 07:54:04;;;;;;;8.95;6.68;;;20.00;99.90;;;;;;5048469;28;20485;-76
2023/06/15 07:56:30;;;;;;;7.55;6.50;;;20.10;99.90;;;;;;5050633;28;20099;-75
2023/06/15 07:58:56;;;;;;;9.23;6.97;;;20.10;99.90;;;;;;5049637;28;20131;-76
2023/06/15 08:01:22;;;;;;;11.48;5.72;;;20.20;99.90;;;;;;5050351;28;20033;-75
2023/06/15 08:03:47;;;;;;;9.38;6.65;;;20.20;99.90;;;;;;5050140;28;20389;-75
2023/06/15 08:06:13;;;;;;;8.88;6.63;;;20.30;99.90;;;;;;5049195;28;20026;-75
2023/06/15 08:08:39;;;;;;;13.35;7.55;;;20.40;99.90;;;;;;5049831;28;20044;-74
2023/06/15 08:11:05;;;;;;;14.90;7.00;;;20.40;99.90;;;;;;5049473;28;20040;-74
2023/06/15 08:13:31;;;;;;;14.25;7.05;;;20.50;99.90;;;;;;5048397;28;20112;-71
2023/06/15 08:15:58;;;;;;;14.57;6.65;;;20.60;99.90;;;;;;5047851;28;20028;-73
2023/06/15 08:18:25;;;;;;;9.18;6.60;;;20.60;99.90;;;;;;5050102;28;20024;-72
2023/06/15 08:20:52;;;;;;;11.55;7.30;;;20.70;99.90;;;;;;5049689;28;20466;-74
2023/06/15 08:23:17;;;;;;;12.75;6.78;;;20.70;99.90;;;;;;5050205;28;20078;-71
2023/06/15 08:25:43;;;;;;;8.25;6.43;;;20.70;99.90;;;;;;5049730;28;20025;-71
2023/06/15 08:28:09;;;;;;;11.07;7.10;;;20.80;99.90;;;;;;5048841;28;20208;-71
2023/06/15 08:30:35;;;;;;;20.23;6.93;;;20.90;99.90;;;;;;5049125;28;20124;-73
2023/06/15 08:33:01;;;;;;;12.13;7.35;;;20.90;99.90;;;;;;5048622;28;20104;-73
2023/06/15 08:35:27;;;;;;;8.90;6.35;;;20.90;99.90;;;;;;5049540;28;20036;-70
2023/06/15 08:37:53;;;;;;;11.52;6.65;;;20.90;99.90;;;;;;5049054;28;20109;-74
2023/06/15 08:40:19;;;;;;;9.85;6.60;;;20.80;99.90;;;;;;5048113;28;20025;-70
2023/06/15 08:42:45;;;;;;;12.70;6.55;;;20.80;99.90;;;;;;5050440;28;20103;-71
2023/06/15 08:45:12;;;;;;;8.95;6.05;;;20.90;99.90;;;;;;5053362;28;20221;-72
2023/06/15 08:47:39;;;;;;;10.63;6.47;;;21.00;99.90;;;;;;5053223;28;20087;-71
2023/06/15 08:50:06;;;;;;;10.50;6.07;;;21.00;99.90;;;;;;5052390;28;20089;-71
2023/06/15 08:52:35;;;;;;;9.48;5.80;;;21.10;99.90;;;;;;5053137;28;20508;-71
2023/06/15 08:55:02;;;;;;;12.13;6.70;;;21.20;99.90;;;;;;5053284;28;20035;-70
2023/06/15 08:57:29;;;;;;;10.50;6.57;;;21.20;99.90;;;;;;5053059;28;20068;-71
2023/06/15 08:59:56;;;;;;;9.52;6.57;;;21.20;99.90;;;;;;5052449;28;20079;-71
2023/06/15 09:02:24;;;;;;;9.85;5.95;;;21.20;99.90;;;;;;5053695;28;20102;-70
2023/06/15 09:04:51;;;;;;;9.10;5.60;;;21.30;99.90;;;;;;5053335;28;20029;-72
2023/06/15 09:07:20;;;;;;;10.93;6.43;;;21.50;99.90;;;;;;5051817;28;20021;-71
2023/06/15 09:10:08;;;;;;;14.10;5.97;;;21.60;99.90;;;;;;5052256;28;20048;-73
2023/06/15 09:12:34;;;;;;;18.92;6.28;;;21.60;99.90;;;;;;5052667;28;20032;-71
2023/06/15 09:15:00;;;;;;;11.30;5.60;;;21.70;99.90;;;;;;5052500;28;20093;-72
2023/06/15 09:17:29;;;;;;;11.07;5.30;;;21.60;99.90;;;;;;5052299;28;20037;-72
2023/06/15 09:19:55;;;;;;;10.20;6.47;;;21.70;99.90;;;;;;5052016;28;20025;-74
2023/06/15 09:22:22;;;;;;;10.93;6.00;;;21.80;99.90;;;;;;5053050;28;20048;-71
2023/06/15 09:24:48;;;;;;;10.85;6.25;;;21.90;99.90;;;;;;5052724;28;20152;-72
2023/06/15 09:27:17;;;;;;;10.55;6.00;;;22.10;99.90;;;;;;5051387;28;20136;-70
2023/06/15 09:30:03;;;;;;;12.93;6.25;;;22.10;99.90;;;;;;5052641;28;20040;-72
2023/06/15 09:32:29;;;;;;;12.13;5.93;;;22.20;99.90;;;;;;5051697;28;20175;-71
2023/06/15 09:34:59;;;;;;;14.90;6.68;;;22.30;99.90;;;;;;5051582;28;20060;-75
2023/06/15 09:37:27;;;;;;;11.63;6.05;;;22.40;99.90;;;;;;5050215;28;20484;-72
2023/06/15 09:39:53;;;;;;;42.58;7.00;;;22.50;99.90;;;;;;5052892;28;20489;-77
2023/06/15 09:42:28;;;;;;;10.65;6.72;;;22.70;99.90;;;;;;5052884;28;20038;-80
2023/06/15 09:44:58;;;;;;;12.60;6.32;;;22.40;99.90;;;;;;5052567;28;20035;-78
2023/06/15 09:47:29;;;;;;;20.50;7.88;;;22.50;99.90;;;;;;5052330;28;20025;-78
2023/06/15 09:49:55;;;;;;;14.13;6.55;;;22.60;99.90;;;;;;5050518;28;20029;-77
2023/06/15 09:52:20;;;;;;;15.98;6.55;;;22.60;99.90;;;;;;5051318;28;20363;-82
2023/06/15 09:54:47;;;;;;;9.05;6.30;;;22.60;99.90;;;;;;5051179;28;20056;-77
2023/06/15 09:57:16;;;;;;;10.35;6.53;;;22.50;99.90;;;;;;5049423;28;20025;-79
2023/06/15 09:59:42;;;;;;;187.32;21.65;;;22.50;99.90;;;;;;5052304;28;20481;-81
2023/06/15 10:02:12;;;;;;;23.73;7.20;;;22.40;99.90;;;;;;5051753;28;20028;-75
2023/06/15 10:04:40;;;;;;;10.30;6.03;;;22.30;99.90;;;;;;5051934;28;20104;-75
2023/06/15 10:07:10;;;;;;;10.43;6.85;;;22.30;99.90;;;;;;5049987;28;20021;-75
2023/06/15 10:09:44;;;;;;;7.60;6.53;;;22.30;99.90;;;;;;5051740;28;20444;-75
2023/06/15 10:12:22;;;;;;;13.05;7.07;;;22.40;99.90;;;;;;5050819;28;20043;-75
2023/06/15 10:15:09;;;;;;;11.95;6.80;;;22.40;99.90;;;;;;5051852;28;20073;-75
2023/06/15 10:17:37;;;;;;;8.02;5.80;;;22.70;99.90;;;;;;5051450;28;20024;-75
2023/06/15 10:20:13;;;;;;;13.25;7.00;;;22.80;99.90;;;;;;5050579;28;20033;-75
2023/06/15 10:23:04;;;;;;;10.43;6.75;;;23.00;99.90;;;;;;5051760;28;20025;-75
2023/06/15 10:25:31;;;;;;;10.45;6.90;;;23.20;99.90;;;;;;5046229;28;20781;-75
2023/06/15 10:28:11;;;;;;;12.30;6.55;;;23.30;99.90;;;;;;5051545;28;20051;-77
2023/06/15 10:31:30;;;;;;;15.18;6.95;;;23.30;99.90;;;;;;5051410;28;20031;-75
2023/06/15 10:34:17;;;;;;;10.27;7.40;;;23.20;99.90;;;;;;5025534;28;20044;-79
2023/06/15 10:37:07;;;;;;;8.73;5.57;;;23.20;99.90;;;;;;5051959;28;20021;-78
2023/06/15 10:39:39;;;;;;;11.65;6.70;;;23.40;99.90;;;;;;5050874;28;20044;-76
2023/06/15 10:42:08;;;;;;;12.98;6.78;;;23.30;99.90;;;;;;5051355;28;20076;-79
2023/06/15 10:44:34;;;;;;;8.30;5.20;;;23.20;99.90;;;;;;5051314;28;20029;-76
2023/06/15 10:47:12;;;;;;;12.80;6.47;;;23.30;99.90;;;;;;5050729;28;20036;-76
2023/06/15 10:49:48;;;;;;;14.90;6.40;;;23.50;99.90;;;;;;5051174;28;20096;-78
2023/06/15 10:52:14;;;;;;;11.30;6.78;;;23.60;99.90;;;;;;5051368;28;20366;-78
2023/06/15 10:54:40;;;;;;;12.05;6.57;;;23.50;99.90;;;;;;5051619;28;20040;-77
2023/06/15 10:57:07;;;;;;;12.32;6.13;;;23.40;99.90;;;;;;5048996;28;20033;-78
2023/06/15 10:59:49;;;;;;;14.70;6.43;;;23.60;99.90;;;;;;5050606;28;20021;-78
2023/06/15 11:02:33;;;;;;;8.75;5.22;;;23.60;99.90;;;;;;5050526;28;20087;-78
2023/06/15 11:05:04;;;;;;;7.80;5.30;;;23.80;99.90;;;;;;5050029;28;20412;-78
2023/06/15 11:07:34;;;;;;;9.40;5.40;;;23.90;99.90;;;;;;5048981;28;20395;-77
2023/06/15 11:10:10;;;;;;;9.70;5.95;;;23.80;99.90;;;;;;5049304;28;20033;-78
2023/06/15 11:12:40;;;;;;;12.23;6.10;;;23.80;99.90;;;;;;5049572;28;20033;-77
2023/06/15 11:15:09;;;;;;;11.68;5.40;;;23.70;99.90;;;;;;5049112;28;20040;-77
2023/06/15 11:17:57;;;;;;;10.30;6.68;;;23.70;99.90;;;;;;5048133;28;20028;-77
2023/06/15 11:20:44;;;;;;;10.73;5.80;;;23.80;99.90;;;;;;5049274;28;20181;-77
2023/06/15 11:23:16;;;;;;;7.68;5.72;;;23.80;99.90;;;;;;5049903;28;20029;-77
2023/06/15 11:25:48;;;;;;;9.80;5.93;;;23.90;99.90;;;;;;5048073;28;20443;-77
2023/06/15 11:28:24;;;;;;;8.25;5.35;;;23.90;99.90;;;;;;5065962;28;20513;-78
2023/06/15 11:30:51;;;;;;;6.95;5.32;;;24.00;99.90;;;;;;5066018;28;20040;-78
2023/06/15 11:33:31;;;;;;;9.88;6.07;;;24.00;99.90;;;;;;5065536;28;20366;-78
2023/06/15 11:36:06;;;;;;;12.40;5.53;;;23.90;99.90;;;;;;5066069;28;20032;-75
2023/06/15 11:38:32;;;;;;;13.75;6.55;;;23.60;99.90;;;;;;5066588;28;20070;-77
2023/06/15 11:41:05;;;;;;;8.55;5.97;;;23.10;99.90;;;;;;5064876;28;20021;-78
2023/06/15 11:43:41;;;;;;;10.23;5.68;;;22.80;99.90;;;;;;5066518;28;20074;-77
2023/06/15 11:46:19;;;;;;;10.02;5.80;;;22.90;99.90;;;;;;5065124;28;20382;-77
2023/06/15 11:48:46;;;;;;;11.32;5.95;;;22.70;99.90;;;;;;5066222;28;20028;-78
2023/06/15 11:51:15;;;;;;;13.32;5.93;;;22.80;99.90;;;;;;5064916;28;20047;-77
2023/06/15 11:53:42;;;;;;;9.65;5.65;;;22.70;99.90;;;;;;5066427;28;20025;-77
2023/06/15 11:56:15;;;;;;;11.70;5.68;;;22.70;99.90;;;;;;5066234;28;20021;-77
2023/06/15 11:58:43;;;;;;;8.32;4.88;;;22.70;99.90;;;;;;5066623;28;20366;-77
2023/06/15 12:01:14;;;;;;;11.65;5.55;;;22.50;99.90;;;;;;5066172;28;20025;-77
2023/06/15 12:03:47;;;;;;;7.88;5.10;;;22.60;99.90;;;;;;5066968;28;20024;-77
2023/06/15 12:06:17;;;;;;;10.27;5.93;;;22.60;99.90;;;;;;5066079;28;20040;-77
2023/06/15 12:08:50;;;;;;;10.13;6.15;;;22.70;99.90;;;;;;5066810;28;20036;-76
2023/06/15 12:11:25;;;;;;;10.80;5.43;;;22.70;99.90;;;;;;5065949;28;20032;-76
2023/06/15 12:13:51;;;;;;;17.35;5.88;;;22.70;99.90;;;;;;5066958;28;20032;-75
2023/06/15 12:16:18;;;;;;;11.65;5.30;;;22.60;99.90;;;;;;5065383;28;20037;-76
2023/06/15 12:18:43;;;;;;;7.60;5.05;;;22.60;99.90;;;;;;5066430;28;20492;-77
2023/06/15 12:21:10;;;;;;;10.10;5.70;;;22.50;99.90;;;;;;5066235;28;20118;-76
2023/06/15 12:23:36;;;;;;;9.63;4.63;;;22.50;99.90;;;;;;5066652;28;20040;-76
2023/06/15 12:26:03;;;;;;;6.82;5.45;;;22.50;99.90;;;;;;5065462;28;20033;-77
2023/06/15 12:28:32;;;;;;;9.10;6.00;;;22.50;99.90;;;;;;5064609;28;20025;-77
2023/06/15 12:31:04;;;;;;;12.63;6.43;;;22.40;99.90;;;;;;5066217;28;20072;-76
2023/06/15 12:33:39;;;;;;;13.20;5.30;;;22.40;99.90;;;;;;5066314;28;20140;-76
2023/06/15 12:36:10;;;;;;;8.45;5.90;;;22.40;99.90;;;;;;5065937;28;20025;-77
2023/06/15 12:38:36;;;;;;;14.48;6.40;;;22.30;99.90;;;;;;5058976;28;20032;-77
2023/06/15 12:41:02;;;;;;;9.15;5.88;;;22.10;99.90;;;;;;5053535;28;20025;-77
2023/06/15 12:43:28;;;;;;;13.10;6.85;;;22.10;99.90;;;;;;5052935;28;20021;-77
2023/06/15 12:45:54;;;;;;;10.45;5.40;;;22.20;99.90;;;;;;5052396;28;20082;-74